createdAt,value
2019-02-05T00:01:34.674Z,1.37
2019-02-05T00:04:03.027Z,1.40
2019-02-05T00:06:31.086Z,1.50
2019-02-05T00:08:59.122Z,1.60
2019-02-05T00:11:27.297Z,1.60
2019-02-05T00:13:55.273Z,1.50
2019-02-05T00:16:23.275Z,1.50
2019-02-05T00:18:51.722Z,1.67
2019-02-05T00:21:19.767Z,1.73
2019-02-05T00:23:47.795Z,1.60
2019-02-05T00:26:15.755Z,1.77
2019-02-05T00:28:43.754Z,1.90
2019-02-05T00:31:11.739Z,1.90
2019-02-05T00:33:39.733Z,2.10
2019-02-05T00:36:10.399Z,1.87
2019-02-05T00:38:38.375Z,1.90
2019-02-05T00:41:06.380Z,1.73
2019-02-05T00:43:34.400Z,1.90
2019-02-05T00:46:02.513Z,2.30
2019-02-05T00:48:30.591Z,1.90
2019-02-05T00:50:58.863Z,2.27
2019-02-05T00:53:27.043Z,2.00
2019-02-05T00:55:55.026Z,2.03
2019-02-05T00:58:23.163Z,2.30
2019-02-05T01:00:51.019Z,2.63
2019-02-05T01:03:19.004Z,2.20
2019-02-05T01:05:47.190Z,2.60
2019-02-05T01:08:15.179Z,2.93
2019-02-05T01:10:43.141Z,3.00
2019-02-05T01:13:11.235Z,2.97
2019-02-05T01:15:39.152Z,3.00
2019-02-05T01:18:07.107Z,3.60
2019-02-05T01:20:35.156Z,3.90
2019-02-05T01:23:03.123Z,3.97
2019-02-05T01:25:31.293Z,4.10
2019-02-05T01:27:59.299Z,4.40
2019-02-05T01:30:27.565Z,4.30
2019-02-05T01:32:55.723Z,5.00
2019-02-05T01:35:23.675Z,4.90
2019-02-05T01:37:51.815Z,5.10
2019-02-05T01:40:20.785Z,5.77
2019-02-05T01:42:48.785Z,6.77
2019-02-05T01:45:17.535Z,6.53
2019-02-05T01:47:45.624Z,6.57
2019-02-05T01:50:14.923Z,6.60
2019-02-05T01:52:42.895Z,7.53
2019-02-05T01:55:11.119Z,7.50
2019-02-05T01:57:39.415Z,8.50
2019-02-05T02:00:08.645Z,8.27
2019-02-05T02:02:36.622Z,7.40
2019-02-05T02:05:05.448Z,9.00
2019-02-05T02:07:33.440Z,8.40
2019-02-05T02:10:01.339Z,8.70
2019-02-05T02:12:29.379Z,9.50
2019-02-05T02:14:57.483Z,9.03
2019-02-05T02:17:25.468Z,8.67
2019-02-05T02:19:53.428Z,8.67
2019-02-05T02:22:21.332Z,8.80
2019-02-05T02:24:49.355Z,9.60
2019-02-05T02:27:17.367Z,9.20
2019-02-05T02:29:45.415Z,8.90
2019-02-05T02:32:13.495Z,9.43
2019-02-05T02:34:41.516Z,9.97
2019-02-05T02:37:09.536Z,9.13
2019-02-05T02:39:37.532Z,8.77
2019-02-05T02:42:05.494Z,9.40
2019-02-05T02:44:33.513Z,8.57
2019-02-05T02:47:02.020Z,8.53
2019-02-05T02:49:29.997Z,8.77
2019-02-05T02:51:58.006Z,8.57
2019-02-05T02:54:26.024Z,8.80
2019-02-05T02:57:21.334Z,8.70
2019-02-05T02:59:23.916Z,9.63
2019-02-05T03:01:51.902Z,9.10
2019-02-05T03:04:20.293Z,9.50
2019-02-05T03:06:48.357Z,9.13
2019-02-05T03:09:16.344Z,9.17
2019-02-05T03:11:44.324Z,9.70
2019-02-05T03:14:12.316Z,9.20
2019-02-05T03:16:40.329Z,8.90
2019-02-05T03:19:08.300Z,9.93
2019-02-05T03:21:36.263Z,10.23
2019-02-05T03:24:04.715Z,9.57
2019-02-05T03:26:32.729Z,10.10
2019-02-05T03:29:00.898Z,10.03
2019-02-05T03:31:28.869Z,9.80
2019-02-05T03:33:56.851Z,10.30
2019-02-05T03:36:24.852Z,10.03
2019-02-05T03:38:52.840Z,9.53
2019-02-05T03:41:20.851Z,10.13
2019-02-05T03:43:48.869Z,9.23
2019-02-05T03:46:17.043Z,9.80
2019-02-05T03:48:48.773Z,9.80
2019-02-05T03:51:20.591Z,9.60
2019-02-05T03:53:51.400Z,8.87
2019-02-05T03:56:38.457Z,9.87
2019-02-05T03:59:13.953Z,8.83
2019-02-05T04:01:56.213Z,9.73
2019-02-05T04:04:52.463Z,9.67
2019-02-05T04:07:45.595Z,9.20
2019-02-05T04:10:19.139Z,9.50
2019-02-05T04:12:52.411Z,9.70
2019-02-05T04:15:38.324Z,9.47
2019-02-05T04:18:20.487Z,9.73
2019-02-05T04:20:54.656Z,9.90
2019-02-05T04:23:44.996Z,9.60
2019-02-05T04:26:20.389Z,10.00
2019-02-05T04:29:19.811Z,9.80
2019-02-05T04:32:01.590Z,10.07
2019-02-05T04:34:42.214Z,9.73
2019-02-05T04:37:29.327Z,9.60
2019-02-05T04:40:11.503Z,9.87
2019-02-05T04:43:01.891Z,10.03
2019-02-05T04:45:49.020Z,9.90
2019-02-05T04:48:43.666Z,9.73
2019-02-05T04:51:37.619Z,9.40
2019-02-05T04:54:16.975Z,9.80
2019-02-05T04:57:10.204Z,9.83
2019-02-05T04:59:42.588Z,10.07
2019-02-05T05:02:15.987Z,9.73
2019-02-05T05:05:06.349Z,10.10
2019-02-05T05:07:46.941Z,9.40
2019-02-05T05:10:14.913Z,9.13
2019-02-05T05:12:43.140Z,9.67
2019-02-05T05:15:11.481Z,8.93
2019-02-05T05:17:39.455Z,9.37
2019-02-05T05:20:08.627Z,9.17
2019-02-05T05:22:36.699Z,10.33
2019-02-05T05:25:05.336Z,9.57
2019-02-05T05:27:33.379Z,9.53
2019-02-05T05:30:01.402Z,8.90
2019-02-05T05:32:29.498Z,10.17
2019-02-05T05:34:57.462Z,9.70
2019-02-05T05:37:25.472Z,10.07
2019-02-05T05:39:53.456Z,9.87
2019-02-05T05:42:21.684Z,10.20
2019-02-05T05:44:49.726Z,9.93
2019-02-05T05:47:17.710Z,9.60
2019-02-05T05:49:45.731Z,9.10
2019-02-05T05:52:13.768Z,9.73
2019-02-05T05:54:41.911Z,9.70
2019-02-05T05:57:09.939Z,9.53
2019-02-05T05:59:38.063Z,9.90
2019-02-05T06:02:06.451Z,9.17
2019-02-05T06:04:34.489Z,9.00
2019-02-05T06:07:02.648Z,9.70
2019-02-05T06:09:30.712Z,10.13
2019-02-05T06:11:58.922Z,9.43
2019-02-05T06:14:27.116Z,10.33
2019-02-05T06:16:55.075Z,9.53
2019-02-05T06:19:23.351Z,10.00
2019-02-05T06:21:51.347Z,10.43
2019-02-05T06:24:19.324Z,9.67
2019-02-05T06:26:47.417Z,9.83
2019-02-05T06:29:15.428Z,10.37
2019-02-05T06:31:43.422Z,10.07
2019-02-05T06:34:11.590Z,9.90
2019-02-05T06:36:39.767Z,9.30
2019-02-05T06:39:08.376Z,9.90
2019-02-05T06:41:36.637Z,9.33
2019-02-05T06:44:04.743Z,9.37
2019-02-05T06:46:32.727Z,9.33
2019-02-05T06:49:00.720Z,9.20
2019-02-05T06:51:28.803Z,9.53
2019-02-05T06:53:56.803Z,8.93
2019-02-05T06:56:24.778Z,8.87
2019-02-05T06:58:52.760Z,8.60
2019-02-05T07:01:20.865Z,9.13
2019-02-05T07:03:48.863Z,8.20
2019-02-05T07:06:16.817Z,8.53
2019-02-05T07:08:44.980Z,9.23
2019-02-05T07:11:12.963Z,8.20
2019-02-05T07:13:41.250Z,8.80
2019-02-05T07:16:09.228Z,7.90
2019-02-05T07:18:37.227Z,8.80
2019-02-05T07:21:05.307Z,8.27
2019-02-05T07:23:33.332Z,8.80
2019-02-05T07:26:01.393Z,8.47
2019-02-05T07:28:29.587Z,8.40
2019-02-05T07:30:58.277Z,8.87
2019-02-05T07:33:26.291Z,8.93
2019-02-05T07:35:54.261Z,8.50
2019-02-05T07:38:22.383Z,8.63
2019-02-05T07:40:50.379Z,8.70
2019-02-05T07:43:18.369Z,8.33
2019-02-05T07:45:46.389Z,8.90
2019-02-05T07:48:17.371Z,7.90
2019-02-05T07:50:45.795Z,8.70
2019-02-05T07:53:13.722Z,8.60
2019-02-05T07:55:41.697Z,8.50
2019-02-05T07:58:09.746Z,7.90
2019-02-05T08:00:37.657Z,7.53
2019-02-05T08:03:05.638Z,8.07
2019-02-05T08:05:33.642Z,8.30
2019-02-05T08:08:01.820Z,7.53
2019-02-05T08:10:30.214Z,8.13
2019-02-05T08:12:58.331Z,7.73
2019-02-05T08:15:27.743Z,7.50
2019-02-05T08:17:55.829Z,7.73
2019-02-05T08:20:23.834Z,7.37
2019-02-05T08:22:51.800Z,7.40
2019-02-05T08:25:19.820Z,7.97
2019-02-05T08:27:47.871Z,7.70
2019-02-05T08:30:17.339Z,8.40
2019-02-05T08:32:45.439Z,7.67
2019-02-05T08:35:13.921Z,7.53
2019-02-05T08:37:41.988Z,8.00
2019-02-05T08:40:11.187Z,7.57
2019-02-05T08:42:39.212Z,7.00
2019-02-05T08:45:09.368Z,7.70
2019-02-05T08:47:37.455Z,8.03
2019-02-05T08:50:06.246Z,7.20
2019-02-05T08:52:34.239Z,6.73
2019-02-05T08:55:02.247Z,7.73
2019-02-05T08:57:30.241Z,7.37
2019-02-05T08:59:58.243Z,7.83
2019-02-05T09:02:27.708Z,7.07
2019-02-05T09:04:55.663Z,6.90
2019-02-05T09:07:23.847Z,6.80
2019-02-05T09:09:51.864Z,7.00
2019-02-05T09:12:19.845Z,6.47
2019-02-05T09:14:48.091Z,6.53
2019-02-05T09:17:16.135Z,6.33
2019-02-05T09:19:44.115Z,6.40
2019-02-05T09:22:12.101Z,6.53
2019-02-05T09:24:40.079Z,6.57
2019-02-05T09:27:08.152Z,6.13
2019-02-05T09:29:36.146Z,5.93
2019-02-05T09:32:04.887Z,6.00
2019-02-05T09:34:32.851Z,5.90
2019-02-05T09:37:00.823Z,5.90
2019-02-05T09:39:28.962Z,6.23
2019-02-05T09:41:56.950Z,5.83
2019-02-05T09:44:25.156Z,6.57
2019-02-05T09:46:53.128Z,6.07
2019-02-05T09:49:21.146Z,5.50
2019-02-05T09:51:49.152Z,6.53
2019-02-05T09:54:17.151Z,6.00
2019-02-05T09:56:45.140Z,5.80
2019-02-05T09:59:13.139Z,5.90
2019-02-05T10:01:41.179Z,5.73
2019-02-05T10:04:09.148Z,5.90
2019-02-05T10:06:37.148Z,5.50
2019-02-05T10:09:06.852Z,5.57
2019-02-05T10:11:34.833Z,6.07
2019-02-05T10:14:02.802Z,5.53
2019-02-05T10:16:31.141Z,5.97
2019-02-05T10:18:59.119Z,5.63
2019-02-05T10:21:27.325Z,5.67
2019-02-05T10:23:57.367Z,5.40
2019-02-05T10:26:25.027Z,5.67
2019-02-05T10:28:53.132Z,5.97
2019-02-05T10:31:21.107Z,5.63
2019-02-05T10:33:55.391Z,5.30
2019-02-05T10:36:19.073Z,5.30
2019-02-05T10:38:47.518Z,5.20
2019-02-05T10:41:15.561Z,5.10
2019-02-05T10:43:43.547Z,5.23
2019-02-05T10:46:11.648Z,5.30
2019-02-05T10:48:39.680Z,5.20
2019-02-05T10:51:07.829Z,4.87
2019-02-05T10:53:35.886Z,6.43
2019-02-05T10:56:04.396Z,5.90
2019-02-05T10:58:32.402Z,6.30
2019-02-05T11:01:00.556Z,6.97
2019-02-05T11:03:28.563Z,6.83
2019-02-05T11:05:56.566Z,5.90
2019-02-05T11:08:24.584Z,5.87
2019-02-05T11:10:52.551Z,4.90
2019-02-05T11:13:20.644Z,5.90
2019-02-05T11:15:49.125Z,5.50
2019-02-05T11:18:17.218Z,5.50
2019-02-05T11:20:45.212Z,4.90
2019-02-05T11:23:13.201Z,5.20
2019-02-05T11:25:41.291Z,5.47
2019-02-05T11:28:09.413Z,5.37
2019-02-05T11:30:38.579Z,4.77
2019-02-05T11:33:07.870Z,5.80
2019-02-05T11:35:35.943Z,5.40
2019-02-05T11:38:04.334Z,5.90
2019-02-05T11:40:32.932Z,5.00
2019-02-05T11:43:02.119Z,5.47
2019-02-05T11:45:30.180Z,5.00
2019-02-05T11:47:59.061Z,5.40
2019-02-05T11:50:27.083Z,4.83
2019-02-05T11:52:55.398Z,4.70
2019-02-05T11:55:24.016Z,4.90
2019-02-05T11:57:52.047Z,5.33
2019-02-05T12:00:40.512Z,5.37
2019-02-05T12:03:09.640Z,5.80
2019-02-05T12:05:38.211Z,5.07
2019-02-05T12:08:06.469Z,5.67
2019-02-05T12:10:34.494Z,5.60
2019-02-05T12:13:02.464Z,5.63
2019-02-05T12:15:30.456Z,6.20
2019-02-05T12:18:04.713Z,5.97
2019-02-05T12:20:32.088Z,5.87
2019-02-05T12:23:00.369Z,6.20
2019-02-05T12:25:28.372Z,6.07
2019-02-05T12:27:56.547Z,5.80
2019-02-05T12:30:26.071Z,5.97
2019-02-05T12:32:54.138Z,6.23
2019-02-05T12:35:22.115Z,6.43
2019-02-05T12:37:50.111Z,7.00
2019-02-05T12:40:18.606Z,6.30
2019-02-05T12:42:46.624Z,6.73
2019-02-05T12:45:16.483Z,6.37
2019-02-05T12:47:44.491Z,6.07
2019-02-05T12:50:14.220Z,6.27
2019-02-05T12:52:42.230Z,6.50
2019-02-05T12:55:13.993Z,6.30
2019-02-05T12:57:39.928Z,5.60
2019-02-05T13:00:12.340Z,6.43
2019-02-05T13:02:40.304Z,6.90
2019-02-05T13:05:08.903Z,6.00
2019-02-05T13:07:36.876Z,6.50
2019-02-05T13:10:05.567Z,7.27
2019-02-05T13:12:33.999Z,6.83
2019-02-05T13:15:01.976Z,7.10
2019-02-05T13:17:30.028Z,6.90
2019-02-05T13:19:58.003Z,7.40
2019-02-05T13:22:25.991Z,6.80
2019-02-05T13:24:54.124Z,7.43
2019-02-05T13:27:22.092Z,6.97
2019-02-05T13:29:50.393Z,7.10
2019-02-05T13:32:18.444Z,7.10
2019-02-05T13:34:46.384Z,6.93
2019-02-05T13:37:14.363Z,6.63
2019-02-05T13:39:42.292Z,6.93
2019-02-05T13:42:10.199Z,7.20
2019-02-05T13:44:38.278Z,6.40
2019-02-05T13:47:06.386Z,6.43
2019-02-05T13:49:34.326Z,6.77
2019-02-05T13:52:02.378Z,6.57
2019-02-05T13:54:30.395Z,6.20
2019-02-05T13:56:58.386Z,6.73
2019-02-05T13:59:32.539Z,6.17
2019-02-05T14:02:00.872Z,6.83
2019-02-05T14:04:28.811Z,6.90
2019-02-05T14:06:56.830Z,7.83
2019-02-05T14:09:24.798Z,7.63
2019-02-05T14:11:52.800Z,6.57
2019-02-05T14:14:20.914Z,6.03
2019-02-05T14:16:48.896Z,6.00
2019-02-05T14:19:17.067Z,6.50
2019-02-05T14:21:45.051Z,5.70
2019-02-05T14:24:13.039Z,5.80
2019-02-05T14:26:41.048Z,5.83
2019-02-05T14:29:11.439Z,5.70
2019-02-05T14:31:39.503Z,5.77
2019-02-05T14:34:07.497Z,5.27
2019-02-05T14:36:35.473Z,5.53
2019-02-05T14:39:04.951Z,5.33
2019-02-05T14:41:32.953Z,5.50
2019-02-05T14:44:00.974Z,6.10
2019-02-05T14:46:29.038Z,6.23
2019-02-05T14:48:57.043Z,5.77
2019-02-05T14:51:25.407Z,6.03
2019-02-05T14:53:53.893Z,5.40
2019-02-05T14:56:22.112Z,6.33
2019-02-05T14:58:50.111Z,6.07
2019-02-05T15:01:18.090Z,5.70
2019-02-05T15:03:46.072Z,6.10
2019-02-05T15:06:14.335Z,5.23
2019-02-05T15:08:42.405Z,5.67
2019-02-05T15:11:11.143Z,6.57
2019-02-05T15:13:39.155Z,6.03
2019-02-05T15:16:07.166Z,6.73
2019-02-05T15:18:35.265Z,6.47
2019-02-05T15:21:03.142Z,6.47
2019-02-05T15:23:31.311Z,6.70
2019-02-05T15:25:59.283Z,7.00
2019-02-05T15:28:27.263Z,6.93
2019-02-05T15:30:56.462Z,6.90
2019-02-05T15:33:42.233Z,7.27
2019-02-05T15:36:25.387Z,7.10
2019-02-05T15:38:53.493Z,7.10
2019-02-05T15:41:21.444Z,7.23
2019-02-05T15:43:49.427Z,6.90
2019-02-05T15:46:17.428Z,5.90
2019-02-05T15:48:45.743Z,6.60
2019-02-05T15:51:15.974Z,6.20
2019-02-05T15:53:43.998Z,6.10
2019-02-05T15:56:12.221Z,5.87
2019-02-05T15:58:40.161Z,6.07
2019-02-05T16:01:08.159Z,6.07
2019-02-05T16:03:36.131Z,6.27
2019-02-05T16:06:04.319Z,5.93
2019-02-05T16:08:32.387Z,5.90
2019-02-05T16:11:00.384Z,5.70
2019-02-05T16:13:28.365Z,5.33
2019-02-05T16:15:56.283Z,5.83
2019-02-05T16:18:24.256Z,5.80
2019-02-05T16:20:52.357Z,5.90
2019-02-05T16:23:20.644Z,5.97
2019-02-05T16:25:48.679Z,6.40
2019-02-05T16:28:16.771Z,5.97
2019-02-05T16:30:44.700Z,5.97
2019-02-05T16:33:12.664Z,6.60
2019-02-05T16:35:40.687Z,6.07
2019-02-05T16:38:08.875Z,5.93
2019-02-05T16:40:37.167Z,6.23
2019-02-05T16:43:05.355Z,5.87
2019-02-05T16:45:33.472Z,5.37
2019-02-05T16:48:01.485Z,5.93
2019-02-05T16:50:31.125Z,5.70
2019-02-05T16:52:59.421Z,5.97
2019-02-05T16:55:27.783Z,6.33
2019-02-05T16:57:55.785Z,6.03
2019-02-05T17:00:28.067Z,5.00
2019-02-05T17:02:57.854Z,4.60
2019-02-05T17:05:26.685Z,4.30
2019-02-05T17:07:54.644Z,3.70
2019-02-05T17:10:25.685Z,2.90
2019-02-05T17:12:53.693Z,2.50
2019-02-05T17:15:22.024Z,2.37
2019-02-05T17:17:49.996Z,2.00
2019-02-05T17:20:22.068Z,2.30
2019-02-05T17:22:51.884Z,1.70
2019-02-05T17:25:20.419Z,1.73
2019-02-05T17:27:48.712Z,1.90
2019-02-05T17:30:21.027Z,1.80
2019-02-05T17:32:49.277Z,1.50
2019-02-05T17:35:17.453Z,1.40
2019-02-05T17:37:45.599Z,1.60
2019-02-05T17:40:15.698Z,1.30
2019-02-05T17:42:43.824Z,1.33
2019-02-05T17:45:16.083Z,1.30
2019-02-05T17:47:47.072Z,1.20
2019-02-05T17:50:16.296Z,4.60
2019-02-05T17:52:44.361Z,1.50
2019-02-05T17:55:13.008Z,1.80
2019-02-05T17:57:41.079Z,1.40
2019-02-05T18:00:12.173Z,1.42
2019-02-05T18:02:51.153Z,1.53
2019-02-05T18:05:11.448Z,1.03
2019-02-05T18:07:39.451Z,1.60
2019-02-05T18:10:08.232Z,1.80
2019-02-05T18:12:36.347Z,1.57
2019-02-05T18:15:04.904Z,1.77
2019-02-05T18:17:33.084Z,1.50
2019-02-05T18:20:01.172Z,1.70
2019-02-05T18:22:29.244Z,1.80
2019-02-05T18:24:57.297Z,1.80
2019-02-05T18:27:25.714Z,1.50
2019-02-05T18:29:53.724Z,1.50
2019-02-05T18:32:21.755Z,1.60
2019-02-05T18:34:49.755Z,1.40
2019-02-05T18:37:17.742Z,1.40
2019-02-05T18:39:45.737Z,1.60
2019-02-05T18:42:13.779Z,1.40
2019-02-05T18:44:42.106Z,1.80
2019-02-05T18:47:10.086Z,1.60
2019-02-05T18:49:38.104Z,1.60
2019-02-05T18:52:08.425Z,1.50
2019-02-05T18:54:35.798Z,1.40
2019-02-05T18:57:03.940Z,1.50
2019-02-05T18:59:32.042Z,1.30
2019-02-05T19:02:00.150Z,1.50
2019-02-05T19:04:28.159Z,1.30
2019-02-05T19:06:56.461Z,2.13
2019-02-05T19:09:24.511Z,1.30
2019-02-05T19:11:52.505Z,1.20
2019-02-05T19:14:23.221Z,1.20
2019-02-05T19:16:50.116Z,1.13
2019-02-05T19:19:18.166Z,1.50
2019-02-05T19:21:46.224Z,1.20
2019-02-05T19:24:37.700Z,1.30
2019-02-05T19:27:05.727Z,0.90
2019-02-05T19:29:34.248Z,1.20
2019-02-05T19:32:02.237Z,1.30
2019-02-05T19:34:30.373Z,1.30
2019-02-05T19:37:00.886Z,2.00
2019-02-05T19:39:29.135Z,4.30
2019-02-05T19:41:57.158Z,2.00
2019-02-05T19:44:27.788Z,1.20
2019-02-05T19:47:07.755Z,1.50
2019-02-05T19:49:41.241Z,1.47
2019-02-05T19:52:09.336Z,1.50
2019-02-05T19:54:37.768Z,1.40
2019-02-05T19:57:05.801Z,1.50
2019-02-05T19:59:33.882Z,2.20
2019-02-05T20:02:02.400Z,1.43
2019-02-05T20:04:30.489Z,3.90
2019-02-05T20:07:00.266Z,3.37
2019-02-05T20:09:28.403Z,4.53
2019-02-05T20:12:02.209Z,1.43
2019-02-05T20:14:32.739Z,4.30
2019-02-05T20:17:01.360Z,2.00
2019-02-05T20:19:29.359Z,1.10
2019-02-05T20:21:59.739Z,1.77
2019-02-05T20:24:27.764Z,1.47
2019-02-05T20:26:55.902Z,1.30
2019-02-05T20:29:23.975Z,1.50
2019-02-05T20:31:51.978Z,1.20
2019-02-05T20:34:20.244Z,1.40
2019-02-05T20:36:48.481Z,1.20
2019-02-05T20:39:17.741Z,2.10
2019-02-05T20:41:45.751Z,1.30
2019-02-05T20:44:13.916Z,1.77
2019-02-05T20:46:41.988Z,1.50
2019-02-05T20:49:10.047Z,1.60
2019-02-05T20:51:40.133Z,1.43
2019-02-05T20:54:08.152Z,1.40
2019-02-05T20:56:36.395Z,1.53
2019-02-05T20:59:05.541Z,1.20
2019-02-05T21:01:33.684Z,1.20
2019-02-05T21:04:01.752Z,1.30
2019-02-05T21:06:31.300Z,1.17
2019-02-05T21:08:59.586Z,3.13
2019-02-05T21:11:30.828Z,1.23
2019-02-05T21:13:58.885Z,1.27
2019-02-05T21:16:26.944Z,1.30
2019-02-05T21:18:54.984Z,3.17
2019-02-05T21:21:23.051Z,1.67
2019-02-05T21:23:51.125Z,1.40
2019-02-05T21:26:19.137Z,1.60
2019-02-05T21:28:47.293Z,3.20
2019-02-05T21:31:15.407Z,1.43
2019-02-05T21:33:43.528Z,1.80
2019-02-05T21:36:11.671Z,1.90
2019-02-05T21:38:39.783Z,2.07
2019-02-05T21:41:07.775Z,1.53
2019-02-05T21:43:35.789Z,1.40
2019-02-05T21:46:04.412Z,1.63
2019-02-05T21:48:32.427Z,2.20
2019-02-05T21:51:01.131Z,2.00
2019-02-05T21:53:29.120Z,2.17
2019-02-05T21:55:57.209Z,2.10
2019-02-05T21:58:32.307Z,2.90
2019-02-05T22:01:00.786Z,1.93
2019-02-05T22:03:32.000Z,2.07
2019-02-05T22:06:00.001Z,1.90
2019-02-05T22:08:29.484Z,2.17
2019-02-05T22:10:57.515Z,1.93
2019-02-05T22:13:25.552Z,2.37
2019-02-05T22:15:53.589Z,2.03
2019-02-05T22:18:21.763Z,2.20
2019-02-05T22:20:54.124Z,1.90
2019-02-05T22:23:22.516Z,2.60
2019-02-05T22:25:50.596Z,2.20
2019-02-05T22:28:20.626Z,2.60
2019-02-05T22:30:51.781Z,2.10
2019-02-05T22:33:19.765Z,2.30
2019-02-05T22:35:53.824Z,2.47
2019-02-05T22:38:24.993Z,2.57
2019-02-05T22:40:53.002Z,2.53
2019-02-05T22:43:21.005Z,2.60
2019-02-05T22:45:49.045Z,2.33
2019-02-05T22:48:17.121Z,1.90
2019-02-05T22:50:45.309Z,2.20
2019-02-05T22:53:13.575Z,2.43
2019-02-05T22:55:41.590Z,2.43
2019-02-05T22:58:09.771Z,1.90
2019-02-05T23:00:51.243Z,2.37
2019-02-05T23:03:21.576Z,2.93
2019-02-05T23:06:17.938Z,2.80
2019-02-05T23:08:45.953Z,2.67
2019-02-05T23:11:30.432Z,2.30
2019-02-05T23:13:59.623Z,2.10
2019-02-05T23:16:27.587Z,2.40
2019-02-05T23:18:56.795Z,2.10
2019-02-05T23:21:24.916Z,2.30
2019-02-05T23:23:52.945Z,2.20
2019-02-05T23:26:24.042Z,2.17
2019-02-05T23:28:54.984Z,2.10
2019-02-05T23:31:22.976Z,1.80
2019-02-05T23:33:52.131Z,2.00
2019-02-05T23:36:20.238Z,2.23
2019-02-05T23:38:48.256Z,2.10
2019-02-05T23:41:16.212Z,2.20
2019-02-05T23:43:45.581Z,2.03
2019-02-05T23:46:13.723Z,2.37
2019-02-05T23:48:44.568Z,2.30
2019-02-05T23:51:12.632Z,2.10
2019-02-05T23:53:40.593Z,2.23
2019-02-05T23:56:12.075Z,2.00
2019-02-05T23:58:42.883Z,2.10
